Pskov, Russia
Current Conditions -  °F | °C
As of 9:00 AM on Saturday 01 Nov 2014 (Local Time) from ULOO Reporting Station
Overcast Overcast  
Wind Chill: 36°   Ceiling: 500
Heat Index: 36°   Visibility: 4mi
Dew Point: 34°   Wind: 2mph
Humidity: 93%   Direction: 320°NW
Pressure: 30.21"   Gusts: NA
Location:  57.83°N, 28.33°E
Report Text: ULOO 010600Z 32001MPS 6000 OVC005 02/01 Q1023 19090070 NOSIGRMK OBST OBSC QFE763
Loading
Personal Weather Stations






























Interactive Weather Map
Tropical Storm Tracking
New forecast layout! Learn more

10-Day Weather Forecast

Advertisements
Track Severe Weather on mobile